Main page
METAR-TAF:

METAR-TAF

Airports :

Pamplona Airport

Pamplona, Spain

latitude: 42-46N, longitude: 001-38W, elevation: 459 m

Current weather observation

The report was made 36 minutes ago, at 08:30 UTC
Wind 3 kt from the Northwest
Temperature 20°C
Humidity 64%
Pressure 1021 hPa
Visibility 10 km or more
no clouds below 1500 m and no cumulonimbus

METAR: LEPP 150830Z 32003KT CAVOK 20/13 Q1021

Time: 11:06 (09:06 UTC)

Forecast

The report was made 1 hour and 6 minutes ago, at 08:00 UTC
Forecast valid from 15 at 09 UTC to 16 at 09 UTC
Wind 9 kt from the North
Visibility 10 km or more
Scattered clouds at a height of 3000 ft

TAF: LEPP 150800Z 1509/1609 35009KT 9999 SCT030 TX30/1515Z TN15/1606Z

Weather observations and forecasts of more than 4000 airports (METAR and TAF reports).

The available stations are represented by yellow and red dots on the map.

Hover mouse over dot to see the name of the station.

Then click to see weather observations and forecasts.

To change the map : click on the green buttons with a black cross to zoom in, on the green button with a dash to zoom out, or on the green arrows for adjacent maps.


METAR-TAF: